sensor_id;sensor_type;location;lat;lon;timestamp;pressure;altitude;pressure_sealevel;temperature;humidity
50310;BME280;36207;51.850;21.698;2022-09-20T00:01:15;99392.33;;;11.33;77.96
50310;BME280;36207;51.850;21.698;2022-09-20T00:03:46;99394.72;;;11.35;78.12
50310;BME280;36207;51.850;21.698;2022-09-20T00:06:16;99392.95;;;11.35;78.12
50310;BME280;36207;51.850;21.698;2022-09-20T00:08:43;99395.88;;;11.35;77.87
50310;BME280;36207;51.850;21.698;2022-09-20T00:11:12;99401.20;;;11.36;77.98
50310;BME280;36207;51.850;21.698;2022-09-20T00:13:44;99399.38;;;11.38;77.86
50310;BME280;36207;51.850;21.698;2022-09-20T00:16:15;99402.30;;;11.39;78.04
50310;BME280;36207;51.850;21.698;2022-09-20T00:18:42;99402.88;;;11.38;77.83
50310;BME280;36207;51.850;21.698;2022-09-20T00:21:16;99403.48;;;11.38;77.84
50310;BME280;36207;51.850;21.698;2022-09-20T00:23:43;99398.19;;;11.37;78.02
50310;BME280;36207;51.850;21.698;2022-09-20T00:26:09;99400.95;;;11.40;78.03
50310;BME280;36207;51.850;21.698;2022-09-20T00:28:35;99405.13;;;11.42;77.92
50310;BME280;36207;51.850;21.698;2022-09-20T00:31:01;99406.10;;;11.42;78.04
50310;BME280;36207;51.850;21.698;2022-09-20T00:33:28;99408.28;;;11.42;77.96
50310;BME280;36207;51.850;21.698;2022-09-20T00:36:14;99412.14;;;11.41;78.05
50310;BME280;36207;51.850;21.698;2022-09-20T00:38:41;99415.77;;;11.42;78.01
50310;BME280;36207;51.850;21.698;2022-09-20T00:41:07;99417.00;;;11.43;77.90
50310;BME280;36207;51.850;21.698;2022-09-20T00:43:41;99419.14;;;11.43;78.06
50310;BME280;36207;51.850;21.698;2022-09-20T00:48:45;99417.41;;;11.39;77.96
50310;BME280;36207;51.850;21.698;2022-09-20T00:51:16;99414.27;;;11.40;78.20
50310;BME280;36207;51.850;21.698;2022-09-20T00:53:48;99415.64;;;11.40;78.20
50310;BME280;36207;51.850;21.698;2022-09-20T00:56:21;99416.21;;;11.40;78.18
50310;BME280;36207;51.850;21.698;2022-09-20T00:59:13;99416.14;;;11.39;78.13
50310;BME280;36207;51.850;21.698;2022-09-20T01:01:43;99415.71;;;11.38;78.04
50310;BME280;36207;51.850;21.698;2022-09-20T01:04:12;99418.10;;;11.39;78.26
50310;BME280;36207;51.850;21.698;2022-09-20T01:06:42;99416.67;;;11.42;78.25
50310;BME280;36207;51.850;21.698;2022-09-20T01:09:09;99415.23;;;11.42;78.42
50310;BME280;36207;51.850;21.698;2022-09-20T01:11:36;99412.63;;;11.41;78.38
50310;BME280;36207;51.850;21.698;2022-09-20T01:14:03;99414.77;;;11.40;78.06
50310;BME280;36207;51.850;21.698;2022-09-20T01:16:31;99418.23;;;11.41;78.09
50310;BME280;36207;51.850;21.698;2022-09-20T01:18:59;99421.58;;;11.43;78.22
50310;BME280;36207;51.850;21.698;2022-09-20T01:21:28;99420.63;;;11.43;78.12
50310;BME280;36207;51.850;21.698;2022-09-20T01:24:16;99417.38;;;11.42;78.16
50310;BME280;36207;51.850;21.698;2022-09-20T01:32:15;99423.64;;;11.48;78.17
50310;BME280;36207;51.850;21.698;2022-09-20T01:34:53;99425.84;;;11.47;78.14
50310;BME280;36207;51.850;21.698;2022-09-20T01:37:27;99421.50;;;11.45;78.02
50310;BME280;36207;51.850;21.698;2022-09-20T01:43:17;99422.70;;;11.42;78.15
50310;BME280;36207;51.850;21.698;2022-09-20T01:45:47;99422.84;;;11.43;78.23
50310;BME280;36207;51.850;21.698;2022-09-20T01:48:55;99422.27;;;11.43;77.92
50310;BME280;36207;51.850;21.698;2022-09-20T02:02:08;99418.69;;;11.32;78.12
50310;BME280;36207;51.850;21.698;2022-09-20T02:05:01;99419.36;;;11.27;77.93
50310;BME280;36207;51.850;21.698;2022-09-20T02:13:10;99419.30;;;11.23;77.86
50310;BME280;36207;51.850;21.698;2022-09-20T02:24:33;99423.64;;;11.20;78.10
50310;BME280;36207;51.850;21.698;2022-09-20T02:30:14;99427.52;;;11.20;78.05
50310;BME280;36207;51.850;21.698;2022-09-20T02:35:40;99422.86;;;11.21;78.04
50310;BME280;36207;51.850;21.698;2022-09-20T02:41:13;99429.11;;;11.19;77.94
50310;BME280;36207;51.850;21.698;2022-09-20T02:44:06;99428.28;;;11.18;78.14
50310;BME280;36207;51.850;21.698;2022-09-20T02:49:43;99439.22;;;11.18;78.04
50310;BME280;36207;51.850;21.698;2022-09-20T02:55:01;99435.17;;;11.18;77.98
50310;BME280;36207;51.850;21.698;2022-09-20T02:57:59;99433.74;;;11.19;78.26
50310;BME280;36207;51.850;21.698;2022-09-20T03:00:37;99434.89;;;11.17;78.18
50310;BME280;36207;51.850;21.698;2022-09-20T03:06:11;99443.23;;;11.14;78.23
50310;BME280;36207;51.850;21.698;2022-09-20T03:09:04;99449.14;;;11.14;78.32
50310;BME280;36207;51.850;21.698;2022-09-20T03:25:33;99457.49;;;11.02;78.37
50310;BME280;36207;51.850;21.698;2022-09-20T03:28:21;99466.31;;;11.00;78.10
50310;BME280;36207;51.850;21.698;2022-09-20T03:33:52;99458.15;;;11.01;78.11
50310;BME280;36207;51.850;21.698;2022-09-20T03:36:47;99456.40;;;10.99;78.12
50310;BME280;36207;51.850;21.698;2022-09-20T03:50:32;99463.30;;;10.98;78.49
50310;BME280;36207;51.850;21.698;2022-09-20T03:58:41;99467.20;;;10.97;78.29
50310;BME280;36207;51.850;21.698;2022-09-20T04:01:34;99472.45;;;10.97;78.35
50310;BME280;36207;51.850;21.698;2022-09-20T04:15:21;99485.63;;;11.00;78.50
50310;BME280;36207;51.850;21.698;2022-09-20T04:17:55;99491.20;;;11.00;78.50
50310;BME280;36207;51.850;21.698;2022-09-20T04:20:42;99494.34;;;10.99;78.42
50310;BME280;36207;51.850;21.698;2022-09-20T04:25:58;99499.39;;;11.00;78.43
50310;BME280;36207;51.850;21.698;2022-09-20T04:28:53;99499.77;;;10.99;78.46
50310;BME280;36207;51.850;21.698;2022-09-20T04:31:41;99501.31;;;10.98;78.55
50310;BME280;36207;51.850;21.698;2022-09-20T04:34:20;99504.23;;;10.97;78.77
50310;BME280;36207;51.850;21.698;2022-09-20T04:37:00;99504.44;;;10.97;78.62
50310;BME280;36207;51.850;21.698;2022-09-20T04:42:07;99506.61;;;10.91;78.68
50310;BME280;36207;51.850;21.698;2022-09-20T04:45:10;99511.22;;;10.87;78.57
50310;BME280;36207;51.850;21.698;2022-09-20T04:56:20;99512.48;;;10.75;78.74
50310;BME280;36207;51.850;21.698;2022-09-20T04:59:05;99514.30;;;10.71;78.90
50310;BME280;36207;51.850;21.698;2022-09-20T05:16:04;99528.48;;;10.64;79.38
50310;BME280;36207;51.850;21.698;2022-09-20T05:21:36;99535.27;;;10.65;79.24
50310;BME280;36207;51.850;21.698;2022-09-20T05:30:00;99539.64;;;10.66;79.26
50310;BME280;36207;51.850;21.698;2022-09-20T05:38:04;99548.31;;;10.66;79.42
50310;BME280;36207;51.850;21.698;2022-09-20T05:41:02;99552.84;;;10.68;79.35
50310;BME280;36207;51.850;21.698;2022-09-20T05:47:16;99552.59;;;10.72;79.40
50310;BME280;36207;51.850;21.698;2022-09-20T05:52:58;99553.48;;;10.79;79.48
50310;BME280;36207;51.850;21.698;2022-09-20T06:02:01;99557.50;;;10.88;79.28
50310;BME280;36207;51.850;21.698;2022-09-20T06:07:59;99562.45;;;10.94;78.97
50310;BME280;36207;51.850;21.698;2022-09-20T06:13:40;99559.70;;;11.05;79.31
50310;BME280;36207;51.850;21.698;2022-09-20T06:16:58;99564.78;;;11.08;79.49
50310;BME280;36207;51.850;21.698;2022-09-20T06:22:42;99572.23;;;11.09;79.15
50310;BME280;36207;51.850;21.698;2022-09-20T06:25:33;99575.11;;;11.09;79.19
50310;BME280;36207;51.850;21.698;2022-09-20T06:28:20;99577.08;;;11.10;79.18
50310;BME280;36207;51.850;21.698;2022-09-20T06:30:49;99581.59;;;11.13;79.34
50310;BME280;36207;51.850;21.698;2022-09-20T06:34:02;99584.36;;;11.14;79.35
50310;BME280;36207;51.850;21.698;2022-09-20T06:36:19;99586.75;;;11.11;79.29
50310;BME280;36207;51.850;21.698;2022-09-20T06:39:13;99585.73;;;11.09;79.36
50310;BME280;36207;51.850;21.698;2022-09-20T06:42:07;99591.95;;;11.07;79.35
50310;BME280;36207;51.850;21.698;2022-09-20T06:44:36;99596.64;;;11.08;79.39
50310;BME280;36207;51.850;21.698;2022-09-20T06:47:13;99593.33;;;11.09;79.62
50310;BME280;36207;51.850;21.698;2022-09-20T06:49:46;99596.39;;;11.08;79.49
50310;BME280;36207;51.850;21.698;2022-09-20T06:52:22;99598.45;;;11.08;79.47
50310;BME280;36207;51.850;21.698;2022-09-20T06:54:56;99601.66;;;11.10;79.46
50310;BME280;36207;51.850;21.698;2022-09-20T06:57:38;99604.00;;;11.11;79.42
50310;BME280;36207;51.850;21.698;2022-09-20T07:00:13;99604.80;;;11.10;79.47
50310;BME280;36207;51.850;21.698;2022-09-20T07:02:47;99608.23;;;11.08;79.40
50310;BME280;36207;51.850;21.698;2022-09-20T07:05:24;99608.63;;;11.11;79.71
50310;BME280;36207;51.850;21.698;2022-09-20T07:07:58;99612.65;;;11.16;79.42
50310;BME280;36207;51.850;21.698;2022-09-20T07:10:32;99610.61;;;11.18;79.73
50310;BME280;36207;51.850;21.698;2022-09-20T07:13:06;99613.23;;;11.20;79.78
50310;BME280;36207;51.850;21.698;2022-09-20T07:15:39;99615.69;;;11.24;79.85
50310;BME280;36207;51.850;21.698;2022-09-20T07:18:07;99614.98;;;11.29;79.58
50310;BME280;36207;51.850;21.698;2022-09-20T07:20:37;99616.39;;;11.30;79.63
50310;BME280;36207;51.850;21.698;2022-09-20T07:23:11;99625.00;;;11.31;79.49
50310;BME280;36207;51.850;21.698;2022-09-20T07:25:44;99630.27;;;11.32;79.47
50310;BME280;36207;51.850;21.698;2022-09-20T07:28:10;99633.12;;;11.34;79.51
50310;BME280;36207;51.850;21.698;2022-09-20T07:30:36;99635.38;;;11.39;79.29
50310;BME280;36207;51.850;21.698;2022-09-20T07:33:03;99641.37;;;11.47;79.42
50310;BME280;36207;51.850;21.698;2022-09-20T07:35:30;99645.71;;;11.52;79.50
50310;BME280;36207;51.850;21.698;2022-09-20T07:37:56;99646.84;;;11.53;79.36
50310;BME280;36207;51.850;21.698;2022-09-20T07:40:23;99649.21;;;11.55;79.43
50310;BME280;36207;51.850;21.698;2022-09-20T07:42:51;99649.20;;;11.59;79.67
50310;BME280;36207;51.850;21.698;2022-09-20T07:45:17;99653.52;;;11.65;79.62
50310;BME280;36207;51.850;21.698;2022-09-20T07:47:43;99656.27;;;11.70;79.47
50310;BME280;36207;51.850;21.698;2022-09-20T07:50:11;99657.89;;;11.73;79.38
50310;BME280;36207;51.850;21.698;2022-09-20T07:52:37;99656.64;;;11.73;79.20
50310;BME280;36207;51.850;21.698;2022-09-20T07:55:07;99658.35;;;11.75;79.21
50310;BME280;36207;51.850;21.698;2022-09-20T07:57:34;99657.70;;;11.81;79.31
50310;BME280;36207;51.850;21.698;2022-09-20T08:00:05;99661.70;;;11.91;79.38
50310;BME280;36207;51.850;21.698;2022-09-20T08:02:31;99663.98;;;12.00;79.41
50310;BME280;36207;51.850;21.698;2022-09-20T08:04:57;99663.50;;;12.07;79.55
50310;BME280;36207;51.850;21.698;2022-09-20T08:07:23;99664.73;;;12.16;79.45
50310;BME280;36207;51.850;21.698;2022-09-20T08:09:50;99666.70;;;12.32;79.73
50310;BME280;36207;51.850;21.698;2022-09-20T08:12:16;99668.63;;;12.47;79.66
50310;BME280;36207;51.850;21.698;2022-09-20T08:14:45;99668.91;;;12.58;79.10
50310;BME280;36207;51.850;21.698;2022-09-20T08:17:11;99668.17;;;12.61;78.76
50310;BME280;36207;51.850;21.698;2022-09-20T08:19:37;99672.46;;;12.62;78.96
50310;BME280;36207;51.850;21.698;2022-09-20T08:22:05;99671.86;;;12.63;78.95
50310;BME280;36207;51.850;21.698;2022-09-20T08:24:32;99672.98;;;12.66;79.08
50310;BME280;36207;51.850;21.698;2022-09-20T08:26:58;99674.11;;;12.75;79.11
50310;BME280;36207;51.850;21.698;2022-09-20T08:29:24;99676.52;;;12.83;78.70
50310;BME280;36207;51.850;21.698;2022-09-20T08:31:50;99676.86;;;12.87;78.94
50310;BME280;36207;51.850;21.698;2022-09-20T08:34:17;99677.91;;;12.92;78.79
50310;BME280;36207;51.850;21.698;2022-09-20T08:36:45;99682.25;;;13.00;78.87
50310;BME280;36207;51.850;21.698;2022-09-20T08:39:17;99678.61;;;13.09;78.82
50310;BME280;36207;51.850;21.698;2022-09-20T08:41:57;99679.46;;;13.17;78.60
50310;BME280;36207;51.850;21.698;2022-09-20T08:44:39;99681.41;;;13.26;78.59
50310;BME280;36207;51.850;21.698;2022-09-20T08:49:52;99679.46;;;13.36;78.01
50310;BME280;36207;51.850;21.698;2022-09-20T08:52:27;99680.69;;;13.39;77.81
50310;BME280;36207;51.850;21.698;2022-09-20T08:54:55;99682.18;;;13.41;77.78
50310;BME280;36207;51.850;21.698;2022-09-20T08:57:27;99685.27;;;13.42;77.36
50310;BME280;36207;51.850;21.698;2022-09-20T08:59:58;99691.34;;;13.39;77.23
50310;BME280;36207;51.850;21.698;2022-09-20T09:02:30;99693.61;;;13.36;77.81
50310;BME280;36207;51.850;21.698;2022-09-20T09:04:56;99694.36;;;13.37;78.17
50310;BME280;36207;51.850;21.698;2022-09-20T09:07:24;99694.33;;;13.41;78.07
50310;BME280;36207;51.850;21.698;2022-09-20T09:09:52;99693.41;;;13.47;77.94
50310;BME280;36207;51.850;21.698;2022-09-20T09:12:33;99692.95;;;13.53;78.17
50310;BME280;36207;51.850;21.698;2022-09-20T09:15:35;99690.20;;;13.60;77.86
50310;BME280;36207;51.850;21.698;2022-09-20T09:18:01;99692.39;;;13.62;77.71
50310;BME280;36207;51.850;21.698;2022-09-20T09:20:28;99688.71;;;13.66;77.81
50310;BME280;36207;51.850;21.698;2022-09-20T09:23:01;99687.64;;;13.71;77.78
50310;BME280;36207;51.850;21.698;2022-09-20T09:25:30;99686.92;;;13.80;77.67
50310;BME280;36207;51.850;21.698;2022-09-20T09:35:57;99691.41;;;14.25;77.23
50310;BME280;36207;51.850;21.698;2022-09-20T09:38:31;99691.63;;;14.22;76.75
50310;BME280;36207;51.850;21.698;2022-09-20T09:41:03;99693.32;;;14.20;76.92
50310;BME280;36207;51.850;21.698;2022-09-20T09:43:33;99693.23;;;14.16;76.19
50310;BME280;36207;51.850;21.698;2022-09-20T09:46:30;99690.63;;;14.10;76.13
50310;BME280;36207;51.850;21.698;2022-09-20T09:51:38;99692.91;;;14.02;76.33
50310;BME280;36207;51.850;21.698;2022-09-20T09:54:14;99692.96;;;14.00;76.36
50310;BME280;36207;51.850;21.698;2022-09-20T09:56:54;99686.64;;;14.02;76.45
50310;BME280;36207;51.850;21.698;2022-09-20T09:59:36;99689.08;;;14.04;76.36
50310;BME280;36207;51.850;21.698;2022-09-20T10:03:04;99693.23;;;14.08;76.19
50310;BME280;36207;51.850;21.698;2022-09-20T10:14:18;99692.22;;;14.23;75.64
50310;BME280;36207;51.850;21.698;2022-09-20T10:22:41;99698.71;;;14.42;75.88
50310;BME280;36207;51.850;21.698;2022-09-20T10:25:14;99698.52;;;14.38;75.46
50310;BME280;36207;51.850;21.698;2022-09-20T10:27:58;99697.23;;;14.29;75.28
50310;BME280;36207;51.850;21.698;2022-09-20T10:36:43;99704.59;;;14.07;75.11
50310;BME280;36207;51.850;21.698;2022-09-20T10:45:17;99706.93;;;14.19;75.10
50310;BME280;36207;51.850;21.698;2022-09-20T10:48:10;99713.30;;;14.18;75.01
50310;BME280;36207;51.850;21.698;2022-09-20T10:50:40;99713.59;;;14.19;74.76
50310;BME280;36207;51.850;21.698;2022-09-20T11:09:30;99726.68;;;14.22;74.53
50310;BME280;36207;51.850;21.698;2022-09-20T11:12:13;99726.80;;;14.17;74.64
50310;BME280;36207;51.850;21.698;2022-09-20T11:14:48;99728.08;;;14.17;75.05
50310;BME280;36207;51.850;21.698;2022-09-20T11:17:23;99727.50;;;14.20;75.02
50310;BME280;36207;51.850;21.698;2022-09-20T11:20:15;99725.67;;;14.23;75.17
50310;BME280;36207;51.850;21.698;2022-09-20T11:22:48;99727.17;;;14.29;75.36
50310;BME280;36207;51.850;21.698;2022-09-20T11:25:18;99726.30;;;14.34;75.59
50310;BME280;36207;51.850;21.698;2022-09-20T11:30:17;99728.52;;;14.40;75.30
50310;BME280;36207;51.850;21.698;2022-09-20T11:35:43;99724.95;;;14.49;75.27
50310;BME280;36207;51.850;21.698;2022-09-20T11:38:20;99727.31;;;14.54;75.25
50310;BME280;36207;51.850;21.698;2022-09-20T11:40:54;99729.23;;;14.59;75.20
50310;BME280;36207;51.850;21.698;2022-09-20T11:43:22;99729.95;;;14.59;75.07
50310;BME280;36207;51.850;21.698;2022-09-20T11:46:00;99728.80;;;14.58;74.94
50310;BME280;36207;51.850;21.698;2022-09-20T11:48:42;99730.68;;;14.60;75.01
50310;BME280;36207;51.850;21.698;2022-09-20T11:56:56;99732.70;;;14.59;74.61
50310;BME280;36207;51.850;21.698;2022-09-20T11:59:38;99731.02;;;14.59;74.20
50310;BME280;36207;51.850;21.698;2022-09-20T12:02:19;99734.10;;;14.62;74.67
50310;BME280;36207;51.850;21.698;2022-09-20T12:04:47;99735.30;;;14.71;74.80
50310;BME280;36207;51.850;21.698;2022-09-20T12:07:37;99729.86;;;14.81;74.70
50310;BME280;36207;51.850;21.698;2022-09-20T12:10:25;99724.30;;;14.94;74.92
50310;BME280;36207;51.850;21.698;2022-09-20T12:12:58;99724.29;;;15.08;73.74
50310;BME280;36207;51.850;21.698;2022-09-20T12:15:32;99725.33;;;15.16;73.07
50310;BME280;36207;51.850;21.698;2022-09-20T12:21:11;99719.30;;;15.33;73.90
50310;BME280;36207;51.850;21.698;2022-09-20T12:28:48;99721.83;;;15.45;73.50
50310;BME280;36207;51.850;21.698;2022-09-20T12:34:03;99721.48;;;15.52;73.78
50310;BME280;36207;51.850;21.698;2022-09-20T12:36:35;99722.15;;;15.62;73.60
50310;BME280;36207;51.850;21.698;2022-09-20T12:39:03;99723.74;;;15.69;73.52
50310;BME280;36207;51.850;21.698;2022-09-20T12:44:35;99720.66;;;15.82;73.40
50310;BME280;36207;51.850;21.698;2022-09-20T12:58:21;99713.64;;;16.73;72.88
50310;BME280;36207;51.850;21.698;2022-09-20T13:03:38;99713.93;;;16.74;69.37
50310;BME280;36207;51.850;21.698;2022-09-20T13:19:14;99725.05;;;16.56;70.59
50310;BME280;36207;51.850;21.698;2022-09-20T13:24:30;99723.48;;;16.25;70.02
50310;BME280;36207;51.850;21.698;2022-09-20T13:27:05;99730.16;;;16.12;70.05
50310;BME280;36207;51.850;21.698;2022-09-20T13:29:38;99728.50;;;16.03;69.90
50310;BME280;36207;51.850;21.698;2022-09-20T13:43:04;99726.67;;;16.40;69.57
50310;BME280;36207;51.850;21.698;2022-09-20T13:45:32;99724.25;;;16.34;68.74
50310;BME280;36207;51.850;21.698;2022-09-20T13:48:00;99724.00;;;16.26;69.21
50310;BME280;36207;51.850;21.698;2022-09-20T13:50:32;99725.89;;;16.17;69.17
50310;BME280;36207;51.850;21.698;2022-09-20T13:53:01;99730.02;;;16.09;68.95
50310;BME280;36207;51.850;21.698;2022-09-20T13:55:33;99730.48;;;16.01;69.47
50310;BME280;36207;51.850;21.698;2022-09-20T13:58:04;99731.55;;;15.91;69.51
50310;BME280;36207;51.850;21.698;2022-09-20T14:00:33;99729.04;;;15.80;69.44
50310;BME280;36207;51.850;21.698;2022-09-20T14:03:02;99729.27;;;15.69;69.61
50310;BME280;36207;51.850;21.698;2022-09-20T14:05:30;99727.92;;;15.60;69.56
50310;BME280;36207;51.850;21.698;2022-09-20T14:07:58;99725.79;;;15.53;69.70
50310;BME280;36207;51.850;21.698;2022-09-20T14:10:35;99722.15;;;15.53;69.61
50310;BME280;36207;51.850;21.698;2022-09-20T14:13:06;99724.50;;;15.59;69.65
50310;BME280;36207;51.850;21.698;2022-09-20T14:15:37;99722.27;;;15.63;69.17
50310;BME280;36207;51.850;21.698;2022-09-20T14:18:06;99723.44;;;15.61;69.04
50310;BME280;36207;51.850;21.698;2022-09-20T14:20:34;99726.63;;;15.56;68.89
50310;BME280;36207;51.850;21.698;2022-09-20T14:23:01;99730.00;;;15.48;68.75
50310;BME280;36207;51.850;21.698;2022-09-20T14:25:27;99726.89;;;15.38;68.84
50310;BME280;36207;51.850;21.698;2022-09-20T14:28:16;99729.83;;;15.30;68.63
50310;BME280;36207;51.850;21.698;2022-09-20T14:30:45;99726.94;;;15.23;68.93
50310;BME280;36207;51.850;21.698;2022-09-20T14:33:15;99726.41;;;15.15;69.10
50310;BME280;36207;51.850;21.698;2022-09-20T14:35:50;99726.84;;;15.05;68.85
50310;BME280;36207;51.850;21.698;2022-09-20T14:38:22;99729.27;;;14.95;68.87
50310;BME280;36207;51.850;21.698;2022-09-20T14:40:50;99730.66;;;14.85;68.98
50310;BME280;36207;51.850;21.698;2022-09-20T14:43:32;99727.60;;;14.77;69.09
50310;BME280;36207;51.850;21.698;2022-09-20T14:46:43;99731.96;;;14.71;69.26
50310;BME280;36207;51.850;21.698;2022-09-20T14:49:28;99732.73;;;14.65;69.32
50310;BME280;36207;51.850;21.698;2022-09-20T14:52:49;99733.59;;;14.64;69.53
50310;BME280;36207;51.850;21.698;2022-09-20T14:57:35;99729.14;;;14.84;70.15
50310;BME280;36207;51.850;21.698;2022-09-20T15:00:07;99728.00;;;14.98;70.04
50310;BME280;36207;51.850;21.698;2022-09-20T15:02:35;99731.65;;;15.10;69.79
50310;BME280;36207;51.850;21.698;2022-09-20T15:05:02;99735.09;;;15.17;69.78
50310;BME280;36207;51.850;21.698;2022-09-20T15:07:28;99734.98;;;15.23;69.45
50310;BME280;36207;51.850;21.698;2022-09-20T15:09:55;99736.39;;;15.28;69.51
50310;BME280;36207;51.850;21.698;2022-09-20T15:12:21;99735.65;;;15.28;69.43
50310;BME280;36207;51.850;21.698;2022-09-20T15:14:47;99735.92;;;15.24;69.37
50310;BME280;36207;51.850;21.698;2022-09-20T15:17:16;99739.02;;;15.18;69.47
50310;BME280;36207;51.850;21.698;2022-09-20T15:19:47;99743.20;;;15.15;69.46
50310;BME280;36207;51.850;21.698;2022-09-20T15:22:14;99747.36;;;15.12;69.57
50310;BME280;36207;51.850;21.698;2022-09-20T15:24:41;99750.89;;;15.10;69.66
50310;BME280;36207;51.850;21.698;2022-09-20T15:27:10;99754.09;;;15.07;69.63
50310;BME280;36207;51.850;21.698;2022-09-20T15:29:36;99757.85;;;15.02;69.42
50310;BME280;36207;51.850;21.698;2022-09-20T15:32:03;99762.64;;;14.95;69.34
50310;BME280;36207;51.850;21.698;2022-09-20T15:34:31;99761.45;;;14.89;69.43
50310;BME280;36207;51.850;21.698;2022-09-20T15:36:57;99764.21;;;14.82;69.29
50310;BME280;36207;51.850;21.698;2022-09-20T15:39:23;99762.73;;;14.71;69.18
50310;BME280;36207;51.850;21.698;2022-09-20T15:41:51;99765.98;;;14.61;69.05
50310;BME280;36207;51.850;21.698;2022-09-20T15:44:17;99767.85;;;14.51;69.14
50310;BME280;36207;51.850;21.698;2022-09-20T15:46:44;99767.70;;;14.43;69.21
50310;BME280;36207;51.850;21.698;2022-09-20T15:49:11;99765.61;;;14.38;69.24
50310;BME280;36207;51.850;21.698;2022-09-20T15:51:37;99768.67;;;14.32;69.20
50310;BME280;36207;51.850;21.698;2022-09-20T15:54:05;99777.35;;;14.27;69.20
50310;BME280;36207;51.850;21.698;2022-09-20T15:56:35;99779.48;;;14.24;69.26
50310;BME280;36207;51.850;21.698;2022-09-20T15:59:09;99782.73;;;14.19;69.23
50310;BME280;36207;51.850;21.698;2022-09-20T16:01:38;99784.69;;;14.14;69.38
50310;BME280;36207;51.850;21.698;2022-09-20T16:04:10;99785.23;;;14.09;69.37
50310;BME280;36207;51.850;21.698;2022-09-20T16:06:38;99784.40;;;14.03;69.56
50310;BME280;36207;51.850;21.698;2022-09-20T16:09:06;99786.09;;;13.96;69.37
50310;BME280;36207;51.850;21.698;2022-09-20T16:11:33;99785.60;;;13.87;69.44
50310;BME280;36207;51.850;21.698;2022-09-20T16:13:59;99788.20;;;13.79;69.40
50310;BME280;36207;51.850;21.698;2022-09-20T16:16:28;99789.77;;;13.73;69.77
50310;BME280;36207;51.850;21.698;2022-09-20T16:18:55;99793.27;;;13.68;69.67
50310;BME280;36207;51.850;21.698;2022-09-20T16:21:42;99803.14;;;13.65;69.79
50310;BME280;36207;51.850;21.698;2022-09-20T16:24:09;99806.42;;;13.61;69.93
50310;BME280;36207;51.850;21.698;2022-09-20T16:26:37;99808.40;;;13.56;70.02
50310;BME280;36207;51.850;21.698;2022-09-20T16:29:05;99810.81;;;13.52;70.10
50310;BME280;36207;51.850;21.698;2022-09-20T16:36:39;99820.45;;;13.27;69.28
50310;BME280;36207;51.850;21.698;2022-09-20T16:39:07;99822.51;;;13.19;69.26
50310;BME280;36207;51.850;21.698;2022-09-20T16:41:33;99831.67;;;13.14;69.21
50310;BME280;36207;51.850;21.698;2022-09-20T16:43:59;99827.32;;;13.06;69.37
50310;BME280;36207;51.850;21.698;2022-09-20T16:46:25;99831.88;;;13.01;69.22
50310;BME280;36207;51.850;21.698;2022-09-20T16:48:55;99835.93;;;12.96;69.33
50310;BME280;36207;51.850;21.698;2022-09-20T16:51:24;99842.15;;;12.93;69.57
50310;BME280;36207;51.850;21.698;2022-09-20T16:53:54;99844.36;;;12.93;69.83
50310;BME280;36207;51.850;21.698;2022-09-20T16:56:23;99846.44;;;12.93;69.85
50310;BME280;36207;51.850;21.698;2022-09-20T16:58:50;99848.91;;;12.91;69.79
50310;BME280;36207;51.850;21.698;2022-09-20T17:01:17;99854.58;;;12.89;69.71
50310;BME280;36207;51.850;21.698;2022-09-20T17:03:43;99858.77;;;12.85;69.84
50310;BME280;36207;51.850;21.698;2022-09-20T17:06:11;99859.42;;;12.80;69.92
50310;BME280;36207;51.850;21.698;2022-09-20T17:08:40;99859.15;;;12.74;69.96
50310;BME280;36207;51.850;21.698;2022-09-20T17:11:08;99860.44;;;12.69;70.04
50310;BME280;36207;51.850;21.698;2022-09-20T17:13:36;99852.48;;;12.67;70.17
50310;BME280;36207;51.850;21.698;2022-09-20T17:16:09;99850.27;;;12.71;70.35
50310;BME280;36207;51.850;21.698;2022-09-20T17:18:36;99849.34;;;12.73;70.28
50310;BME280;36207;51.850;21.698;2022-09-20T17:21:12;99854.86;;;12.75;70.34
50310;BME280;36207;51.850;21.698;2022-09-20T17:23:44;99857.73;;;12.74;70.20
50310;BME280;36207;51.850;21.698;2022-09-20T17:26:24;99858.70;;;12.69;70.30
50310;BME280;36207;51.850;21.698;2022-09-20T17:28:53;99860.85;;;12.62;70.49
50310;BME280;36207;51.850;21.698;2022-09-20T17:31:26;99862.66;;;12.56;70.46
50310;BME280;36207;51.850;21.698;2022-09-20T17:34:00;99865.29;;;12.56;70.44
50310;BME280;36207;51.850;21.698;2022-09-20T17:36:31;99866.38;;;12.59;70.68
50310;BME280;36207;51.850;21.698;2022-09-20T17:38:59;99867.45;;;12.64;70.78
50310;BME280;36207;51.850;21.698;2022-09-20T17:41:27;99871.38;;;12.66;70.50
50310;BME280;36207;51.850;21.698;2022-09-20T17:43:56;99872.56;;;12.65;70.40
50310;BME280;36207;51.850;21.698;2022-09-20T17:46:28;99876.55;;;12.62;70.63
50310;BME280;36207;51.850;21.698;2022-09-20T17:48:58;99873.25;;;12.56;70.61
50310;BME280;36207;51.850;21.698;2022-09-20T17:51:28;99876.54;;;12.49;70.52
50310;BME280;36207;51.850;21.698;2022-09-20T17:53:55;99881.14;;;12.47;70.81
50310;BME280;36207;51.850;21.698;2022-09-20T17:56:21;99884.30;;;12.47;70.80
50310;BME280;36207;51.850;21.698;2022-09-20T17:58:54;99886.92;;;12.50;71.09
50310;BME280;36207;51.850;21.698;2022-09-20T18:01:22;99886.64;;;12.56;71.16
50310;BME280;36207;51.850;21.698;2022-09-20T18:03:48;99893.63;;;12.59;71.13
50310;BME280;36207;51.850;21.698;2022-09-20T18:06:19;99894.51;;;12.60;71.09
50310;BME280;36207;51.850;21.698;2022-09-20T18:08:47;99898.50;;;12.59;71.30
50310;BME280;36207;51.850;21.698;2022-09-20T18:11:18;99901.53;;;12.58;71.35
50310;BME280;36207;51.850;21.698;2022-09-20T18:13:46;99901.39;;;12.57;71.35
50310;BME280;36207;51.850;21.698;2022-09-20T18:16:15;99903.25;;;12.56;71.56